sensor_id;sensor_type;location;lat;lon;timestamp;temperature;humidity
38860;DHT22;24609;48.316;16.174;2023-07-31T00:00:27;16.20;99.90
38860;DHT22;24609;48.316;16.174;2023-07-31T00:02:54;16.20;99.90
38860;DHT22;24609;48.316;16.174;2023-07-31T00:05:20;16.20;99.90
38860;DHT22;24609;48.316;16.174;2023-07-31T00:07:45;16.30;99.90
38860;DHT22;24609;48.316;16.174;2023-07-31T00:10:11;16.40;99.90
38860;DHT22;24609;48.316;16.174;2023-07-31T00:12:38;16.40;99.90
38860;DHT22;24609;48.316;16.174;2023-07-31T00:15:06;16.40;99.90
38860;DHT22;24609;48.316;16.174;2023-07-31T00:17:33;16.40;99.90
38860;DHT22;24609;48.316;16.174;2023-07-31T00:19:58;16.40;99.90
38860;DHT22;24609;48.316;16.174;2023-07-31T00:22:24;16.40;99.90
38860;DHT22;24609;48.316;16.174;2023-07-31T00:24:50;16.40;99.90
38860;DHT22;24609;48.316;16.174;2023-07-31T00:27:15;16.50;99.90
38860;DHT22;24609;48.316;16.174;2023-07-31T00:29:41;16.50;99.90
38860;DHT22;24609;48.316;16.174;2023-07-31T00:32:07;16.40;99.90
38860;DHT22;24609;48.316;16.174;2023-07-31T00:34:33;16.40;99.90
38860;DHT22;24609;48.316;16.174;2023-07-31T00:36:58;16.30;99.90
38860;DHT22;24609;48.316;16.174;2023-07-31T00:39:24;16.10;99.90
38860;DHT22;24609;48.316;16.174;2023-07-31T00:41:50;16.10;99.90
38860;DHT22;24609;48.316;16.174;2023-07-31T00:44:15;16.00;99.90
38860;DHT22;24609;48.316;16.174;2023-07-31T00:46:41;15.90;99.90
38860;DHT22;24609;48.316;16.174;2023-07-31T00:49:08;16.10;99.90
38860;DHT22;24609;48.316;16.174;2023-07-31T00:51:34;16.10;99.90
38860;DHT22;24609;48.316;16.174;2023-07-31T00:54:00;16.00;99.90
38860;DHT22;24609;48.316;16.174;2023-07-31T00:56:27;15.90;99.90
38860;DHT22;24609;48.316;16.174;2023-07-31T00:58:54;15.90;99.90
38860;DHT22;24609;48.316;16.174;2023-07-31T01:01:20;15.90;99.90
38860;DHT22;24609;48.316;16.174;2023-07-31T01:03:46;16.00;99.90
38860;DHT22;24609;48.316;16.174;2023-07-31T01:06:22;16.10;99.90
38860;DHT22;24609;48.316;16.174;2023-07-31T01:11:28;16.10;99.90
38860;DHT22;24609;48.316;16.174;2023-07-31T01:13:55;16.10;99.90
38860;DHT22;24609;48.316;16.174;2023-07-31T01:16:22;16.10;99.90
38860;DHT22;24609;48.316;16.174;2023-07-31T01:18:47;16.00;99.90
38860;DHT22;24609;48.316;16.174;2023-07-31T01:21:37;16.00;99.90
38860;DHT22;24609;48.316;16.174;2023-07-31T01:24:28;15.90;99.90
38860;DHT22;24609;48.316;16.174;2023-07-31T01:27:06;15.90;99.90
38860;DHT22;24609;48.316;16.174;2023-07-31T01:30:05;15.70;99.90
38860;DHT22;24609;48.316;16.174;2023-07-31T01:32:39;15.70;99.90
38860;DHT22;24609;48.316;16.174;2023-07-31T01:35:05;15.60;99.90
38860;DHT22;24609;48.316;16.174;2023-07-31T01:37:31;15.70;99.90
38860;DHT22;24609;48.316;16.174;2023-07-31T01:39:57;15.70;99.90
38860;DHT22;24609;48.316;16.174;2023-07-31T01:42:22;15.70;99.90
38860;DHT22;24609;48.316;16.174;2023-07-31T01:44:48;15.70;99.90
38860;DHT22;24609;48.316;16.174;2023-07-31T01:47:14;15.70;99.90
38860;DHT22;24609;48.316;16.174;2023-07-31T01:49:39;15.60;99.90
38860;DHT22;24609;48.316;16.174;2023-07-31T01:52:05;15.60;99.90
38860;DHT22;24609;48.316;16.174;2023-07-31T01:54:31;15.60;99.90
38860;DHT22;24609;48.316;16.174;2023-07-31T01:56:57;15.60;99.90
38860;DHT22;24609;48.316;16.174;2023-07-31T01:59:22;15.60;99.90
38860;DHT22;24609;48.316;16.174;2023-07-31T02:01:48;15.60;99.90
38860;DHT22;24609;48.316;16.174;2023-07-31T02:04:14;15.60;99.90
38860;DHT22;24609;48.316;16.174;2023-07-31T02:06:39;15.60;99.90
38860;DHT22;24609;48.316;16.174;2023-07-31T02:09:05;15.60;99.90
38860;DHT22;24609;48.316;16.174;2023-07-31T02:11:31;15.60;99.90
38860;DHT22;24609;48.316;16.174;2023-07-31T02:13:56;15.60;99.90
38860;DHT22;24609;48.316;16.174;2023-07-31T02:16:22;15.50;99.90
38860;DHT22;24609;48.316;16.174;2023-07-31T02:18:48;15.60;99.90
38860;DHT22;24609;48.316;16.174;2023-07-31T02:21:13;15.60;99.90
38860;DHT22;24609;48.316;16.174;2023-07-31T02:23:39;15.40;99.90
38860;DHT22;24609;48.316;16.174;2023-07-31T02:26:05;15.50;99.90
38860;DHT22;24609;48.316;16.174;2023-07-31T02:28:31;15.40;99.90
38860;DHT22;24609;48.316;16.174;2023-07-31T02:30:56;15.40;99.90
38860;DHT22;24609;48.316;16.174;2023-07-31T02:33:22;15.50;99.90
38860;DHT22;24609;48.316;16.174;2023-07-31T02:35:48;15.50;99.90
38860;DHT22;24609;48.316;16.174;2023-07-31T02:38:13;15.50;99.90
38860;DHT22;24609;48.316;16.174;2023-07-31T02:40:40;15.50;99.90
38860;DHT22;24609;48.316;16.174;2023-07-31T02:43:08;15.50;99.90
38860;DHT22;24609;48.316;16.174;2023-07-31T02:45:34;15.50;99.90
38860;DHT22;24609;48.316;16.174;2023-07-31T02:48:00;15.50;99.90
38860;DHT22;24609;48.316;16.174;2023-07-31T02:50:26;15.50;99.90
38860;DHT22;24609;48.316;16.174;2023-07-31T02:52:53;15.50;99.90
38860;DHT22;24609;48.316;16.174;2023-07-31T02:55:18;15.50;99.90
38860;DHT22;24609;48.316;16.174;2023-07-31T02:57:44;15.40;99.90
38860;DHT22;24609;48.316;16.174;2023-07-31T03:00:10;15.40;99.90
38860;DHT22;24609;48.316;16.174;2023-07-31T03:02:36;15.40;99.90
38860;DHT22;24609;48.316;16.174;2023-07-31T03:05:02;15.40;99.90
38860;DHT22;24609;48.316;16.174;2023-07-31T03:07:27;15.40;99.90
38860;DHT22;24609;48.316;16.174;2023-07-31T03:09:54;15.30;99.90
38860;DHT22;24609;48.316;16.174;2023-07-31T03:12:19;15.40;99.90
38860;DHT22;24609;48.316;16.174;2023-07-31T03:14:45;15.40;99.90
38860;DHT22;24609;48.316;16.174;2023-07-31T03:17:11;15.30;99.90
38860;DHT22;24609;48.316;16.174;2023-07-31T03:19:37;15.40;99.90
38860;DHT22;24609;48.316;16.174;2023-07-31T03:22:02;15.50;99.90
38860;DHT22;24609;48.316;16.174;2023-07-31T03:24:28;15.50;99.90
38860;DHT22;24609;48.316;16.174;2023-07-31T03:26:54;15.50;99.90
38860;DHT22;24609;48.316;16.174;2023-07-31T03:29:20;15.60;99.90
38860;DHT22;24609;48.316;16.174;2023-07-31T03:31:46;15.60;99.90
38860;DHT22;24609;48.316;16.174;2023-07-31T03:34:11;15.60;99.90
38860;DHT22;24609;48.316;16.174;2023-07-31T03:36:37;15.60;99.90
38860;DHT22;24609;48.316;16.174;2023-07-31T03:39:03;15.50;99.90
38860;DHT22;24609;48.316;16.174;2023-07-31T03:41:29;15.50;99.90
38860;DHT22;24609;48.316;16.174;2023-07-31T03:43:54;15.50;99.90
38860;DHT22;24609;48.316;16.174;2023-07-31T03:46:22;15.50;99.90
38860;DHT22;24609;48.316;16.174;2023-07-31T03:48:48;15.60;99.90
38860;DHT22;24609;48.316;16.174;2023-07-31T03:51:14;15.60;99.90
38860;DHT22;24609;48.316;16.174;2023-07-31T03:53:40;15.60;99.90
38860;DHT22;24609;48.316;16.174;2023-07-31T03:56:05;15.60;99.90
38860;DHT22;24609;48.316;16.174;2023-07-31T03:58:31;15.60;99.90
38860;DHT22;24609;48.316;16.174;2023-07-31T04:00:57;15.70;99.90
38860;DHT22;24609;48.316;16.174;2023-07-31T04:03:23;15.80;99.90
38860;DHT22;24609;48.316;16.174;2023-07-31T04:05:48;15.80;99.90
38860;DHT22;24609;48.316;16.174;2023-07-31T04:08:14;15.90;99.90
38860;DHT22;24609;48.316;16.174;2023-07-31T04:10:39;16.00;99.90
38860;DHT22;24609;48.316;16.174;2023-07-31T04:13:05;16.00;99.90
38860;DHT22;24609;48.316;16.174;2023-07-31T04:15:31;16.00;99.90
38860;DHT22;24609;48.316;16.174;2023-07-31T04:17:56;16.10;99.90
38860;DHT22;24609;48.316;16.174;2023-07-31T04:20:22;16.10;99.90
38860;DHT22;24609;48.316;16.174;2023-07-31T04:22:49;16.10;99.90
38860;DHT22;24609;48.316;16.174;2023-07-31T04:25:14;16.20;99.90
38860;DHT22;24609;48.316;16.174;2023-07-31T04:27:40;16.30;99.90
38860;DHT22;24609;48.316;16.174;2023-07-31T04:30:06;16.40;99.90
38860;DHT22;24609;48.316;16.174;2023-07-31T04:32:32;16.40;99.90
38860;DHT22;24609;48.316;16.174;2023-07-31T04:34:58;16.40;99.90
38860;DHT22;24609;48.316;16.174;2023-07-31T04:37:23;16.50;99.90
38860;DHT22;24609;48.316;16.174;2023-07-31T04:39:49;16.50;99.90
38860;DHT22;24609;48.316;16.174;2023-07-31T04:42:15;16.60;99.90
38860;DHT22;24609;48.316;16.174;2023-07-31T04:44:40;16.60;99.90
38860;DHT22;24609;48.316;16.174;2023-07-31T04:47:06;16.80;99.90
38860;DHT22;24609;48.316;16.174;2023-07-31T04:49:32;16.90;99.90
38860;DHT22;24609;48.316;16.174;2023-07-31T04:51:58;17.00;99.90
38860;DHT22;24609;48.316;16.174;2023-07-31T04:54:24;17.10;99.90
38860;DHT22;24609;48.316;16.174;2023-07-31T04:56:49;17.10;99.90
38860;DHT22;24609;48.316;16.174;2023-07-31T04:59:15;17.10;99.90
38860;DHT22;24609;48.316;16.174;2023-07-31T05:01:41;17.20;99.90
38860;DHT22;24609;48.316;16.174;2023-07-31T05:04:06;17.20;99.90
38860;DHT22;24609;48.316;16.174;2023-07-31T05:06:32;17.10;99.90
38860;DHT22;24609;48.316;16.174;2023-07-31T05:08:58;17.10;99.90
38860;DHT22;24609;48.316;16.174;2023-07-31T05:11:24;17.10;99.90
38860;DHT22;24609;48.316;16.174;2023-07-31T05:13:49;17.00;99.90
38860;DHT22;24609;48.316;16.174;2023-07-31T05:16:15;16.80;99.90
38860;DHT22;24609;48.316;16.174;2023-07-31T05:18:40;16.80;99.90
38860;DHT22;24609;48.316;16.174;2023-07-31T05:21:06;16.90;99.90
38860;DHT22;24609;48.316;16.174;2023-07-31T05:23:32;17.00;99.90
38860;DHT22;24609;48.316;16.174;2023-07-31T05:26:05;17.00;99.90
38860;DHT22;24609;48.316;16.174;2023-07-31T05:28:31;17.00;99.90
38860;DHT22;24609;48.316;16.174;2023-07-31T05:31:01;17.20;99.90
38860;DHT22;24609;48.316;16.174;2023-07-31T05:33:27;17.40;99.90
38860;DHT22;24609;48.316;16.174;2023-07-31T05:35:53;17.60;99.90
38860;DHT22;24609;48.316;16.174;2023-07-31T05:38:18;17.90;99.90
38860;DHT22;24609;48.316;16.174;2023-07-31T05:40:44;18.40;99.90
38860;DHT22;24609;48.316;16.174;2023-07-31T05:43:10;18.70;99.90
38860;DHT22;24609;48.316;16.174;2023-07-31T05:45:36;18.90;99.90
38860;DHT22;24609;48.316;16.174;2023-07-31T05:48:02;19.20;99.90
38860;DHT22;24609;48.316;16.174;2023-07-31T05:50:28;19.40;99.90
38860;DHT22;24609;48.316;16.174;2023-07-31T05:52:54;19.50;99.90
38860;DHT22;24609;48.316;16.174;2023-07-31T05:55:19;19.50;99.90
38860;DHT22;24609;48.316;16.174;2023-07-31T05:57:46;19.50;99.90
38860;DHT22;24609;48.316;16.174;2023-07-31T06:00:12;19.50;99.90
38860;DHT22;24609;48.316;16.174;2023-07-31T06:02:38;19.60;99.90
38860;DHT22;24609;48.316;16.174;2023-07-31T06:05:05;19.60;99.90
38860;DHT22;24609;48.316;16.174;2023-07-31T06:07:33;19.60;1.00
38860;DHT22;24609;48.316;16.174;2023-07-31T06:09:59;19.50;1.00
38860;DHT22;24609;48.316;16.174;2023-07-31T06:12:30;19.80;1.00
38860;DHT22;24609;48.316;16.174;2023-07-31T06:14:56;20.00;1.00
38860;DHT22;24609;48.316;16.174;2023-07-31T06:17:22;20.20;99.90
38860;DHT22;24609;48.316;16.174;2023-07-31T06:19:48;20.30;99.90
38860;DHT22;24609;48.316;16.174;2023-07-31T06:22:14;20.40;99.90
38860;DHT22;24609;48.316;16.174;2023-07-31T06:24:40;20.40;99.90
38860;DHT22;24609;48.316;16.174;2023-07-31T06:27:06;20.30;99.90
38860;DHT22;24609;48.316;16.174;2023-07-31T06:29:31;20.20;99.90
38860;DHT22;24609;48.316;16.174;2023-07-31T06:31:57;20.40;99.90
38860;DHT22;24609;48.316;16.174;2023-07-31T06:34:23;20.80;99.90
38860;DHT22;24609;48.316;16.174;2023-07-31T06:36:49;21.60;99.90
38860;DHT22;24609;48.316;16.174;2023-07-31T06:39:14;22.40;99.90
38860;DHT22;24609;48.316;16.174;2023-07-31T06:41:42;22.30;99.90
38860;DHT22;24609;48.316;16.174;2023-07-31T06:44:08;22.90;99.90
38860;DHT22;24609;48.316;16.174;2023-07-31T06:46:34;23.40;99.90
38860;DHT22;24609;48.316;16.174;2023-07-31T06:48:59;22.40;99.90
38860;DHT22;24609;48.316;16.174;2023-07-31T06:51:25;21.70;99.90
38860;DHT22;24609;48.316;16.174;2023-07-31T06:53:51;21.40;99.90
38860;DHT22;24609;48.316;16.174;2023-07-31T06:56:16;21.40;99.90
38860;DHT22;24609;48.316;16.174;2023-07-31T06:58:42;22.10;99.90
38860;DHT22;24609;48.316;16.174;2023-07-31T07:01:08;23.30;99.90
38860;DHT22;24609;48.316;16.174;2023-07-31T07:03:34;23.20;99.90
38860;DHT22;24609;48.316;16.174;2023-07-31T07:06:00;23.50;99.90
38860;DHT22;24609;48.316;16.174;2023-07-31T07:08:26;24.00;99.90
38860;DHT22;24609;48.316;16.174;2023-07-31T07:10:51;24.30;99.50
38860;DHT22;24609;48.316;16.174;2023-07-31T07:13:17;23.50;98.90
38860;DHT22;24609;48.316;16.174;2023-07-31T07:15:50;23.10;99.80
38860;DHT22;24609;48.316;16.174;2023-07-31T07:18:16;22.70;99.50
38860;DHT22;24609;48.316;16.174;2023-07-31T07:20:50;22.90;99.90
38860;DHT22;24609;48.316;16.174;2023-07-31T07:23:16;23.20;99.90
38860;DHT22;24609;48.316;16.174;2023-07-31T07:25:43;23.30;99.60
38860;DHT22;24609;48.316;16.174;2023-07-31T07:28:09;23.70;98.30
38860;DHT22;24609;48.316;16.174;2023-07-31T07:30:35;23.40;98.00
38860;DHT22;24609;48.316;16.174;2023-07-31T07:33:01;23.60;98.50
38860;DHT22;24609;48.316;16.174;2023-07-31T07:35:27;23.50;98.40
38860;DHT22;24609;48.316;16.174;2023-07-31T07:37:52;23.20;99.50
38860;DHT22;24609;48.316;16.174;2023-07-31T07:40:19;23.90;99.10
38860;DHT22;24609;48.316;16.174;2023-07-31T07:42:45;23.80;96.90
38860;DHT22;24609;48.316;16.174;2023-07-31T07:45:11;24.40;96.00
38860;DHT22;24609;48.316;16.174;2023-07-31T07:47:40;24.80;95.00
38860;DHT22;24609;48.316;16.174;2023-07-31T07:50:06;24.90;95.20
38860;DHT22;24609;48.316;16.174;2023-07-31T07:52:32;25.00;95.50
38860;DHT22;24609;48.316;16.174;2023-07-31T07:54:57;24.30;95.80
38860;DHT22;24609;48.316;16.174;2023-07-31T07:57:23;24.90;94.30
38860;DHT22;24609;48.316;16.174;2023-07-31T07:59:49;25.30;93.10
38860;DHT22;24609;48.316;16.174;2023-07-31T08:02:14;24.30;90.90
38860;DHT22;24609;48.316;16.174;2023-07-31T08:04:40;24.70;91.00
38860;DHT22;24609;48.316;16.174;2023-07-31T08:07:06;24.80;92.60
38860;DHT22;24609;48.316;16.174;2023-07-31T08:09:31;26.10;89.60
38860;DHT22;24609;48.316;16.174;2023-07-31T08:11:57;26.60;82.70
38860;DHT22;24609;48.316;16.174;2023-07-31T08:14:27;28.20;78.70
38860;DHT22;24609;48.316;16.174;2023-07-31T08:16:53;29.40;71.20
38860;DHT22;24609;48.316;16.174;2023-07-31T08:19:18;29.00;70.10
38860;DHT22;24609;48.316;16.174;2023-07-31T08:21:44;29.80;62.20
38860;DHT22;24609;48.316;16.174;2023-07-31T08:24:10;28.30;59.10
38860;DHT22;24609;48.316;16.174;2023-07-31T08:26:36;28.50;62.10
38860;DHT22;24609;48.316;16.174;2023-07-31T08:29:02;28.90;58.40
38860;DHT22;24609;48.316;16.174;2023-07-31T08:31:27;29.70;58.80
38860;DHT22;24609;48.316;16.174;2023-07-31T08:33:55;29.40;56.70
38860;DHT22;24609;48.316;16.174;2023-07-31T08:36:21;29.20;55.30
38860;DHT22;24609;48.316;16.174;2023-07-31T08:38:47;27.90;50.10
38860;DHT22;24609;48.316;16.174;2023-07-31T08:41:13;28.60;51.10
38860;DHT22;24609;48.316;16.174;2023-07-31T08:43:39;28.80;48.10
38860;DHT22;24609;48.316;16.174;2023-07-31T08:46:05;29.50;49.20
38860;DHT22;24609;48.316;16.174;2023-07-31T08:48:31;28.80;47.80
38860;DHT22;24609;48.316;16.174;2023-07-31T08:50:58;28.00;48.50
38860;DHT22;24609;48.316;16.174;2023-07-31T08:53:24;30.00;46.70
38860;DHT22;24609;48.316;16.174;2023-07-31T08:55:52;30.40;44.00
38860;DHT22;24609;48.316;16.174;2023-07-31T08:58:19;31.20;44.20
38860;DHT22;24609;48.316;16.174;2023-07-31T09:00:46;33.10;43.50
38860;DHT22;24609;48.316;16.174;2023-07-31T09:03:17;32.50;37.50
38860;DHT22;24609;48.316;16.174;2023-07-31T09:05:45;33.80;36.10
38860;DHT22;24609;48.316;16.174;2023-07-31T09:08:12;35.50;36.00
38860;DHT22;24609;48.316;16.174;2023-07-31T09:10:45;34.40;34.80
38860;DHT22;24609;48.316;16.174;2023-07-31T09:13:12;31.10;33.80
38860;DHT22;24609;48.316;16.174;2023-07-31T09:15:39;31.90;35.50
38860;DHT22;24609;48.316;16.174;2023-07-31T09:18:06;32.70;35.30
38860;DHT22;24609;48.316;16.174;2023-07-31T09:20:32;32.30;33.40
38860;DHT22;24609;48.316;16.174;2023-07-31T09:23:25;31.10;33.70
38860;DHT22;24609;48.316;16.174;2023-07-31T09:25:51;31.30;35.10
38860;DHT22;24609;48.316;16.174;2023-07-31T09:28:16;30.60;33.50
38860;DHT22;24609;48.316;16.174;2023-07-31T09:30:50;31.40;34.00
38860;DHT22;24609;48.316;16.174;2023-07-31T09:33:17;32.10;34.10
38860;DHT22;24609;48.316;16.174;2023-07-31T09:35:43;32.00;31.80
38860;DHT22;24609;48.316;16.174;2023-07-31T09:38:13;34.80;32.70
38860;DHT22;24609;48.316;16.174;2023-07-31T09:40:42;36.90;28.80
38860;DHT22;24609;48.316;16.174;2023-07-31T09:43:09;35.60;27.60
38860;DHT22;24609;48.316;16.174;2023-07-31T09:45:38;34.30;28.40
38860;DHT22;24609;48.316;16.174;2023-07-31T09:48:12;35.60;29.50
38860;DHT22;24609;48.316;16.174;2023-07-31T09:50:39;32.40;28.30
38860;DHT22;24609;48.316;16.174;2023-07-31T09:53:06;33.30;30.00
38860;DHT22;24609;48.316;16.174;2023-07-31T09:55:32;32.60;28.20
38860;DHT22;24609;48.316;16.174;2023-07-31T09:57:58;35.20;28.00
38860;DHT22;24609;48.316;16.174;2023-07-31T10:00:24;33.50;27.40
38860;DHT22;24609;48.316;16.174;2023-07-31T10:02:54;33.40;27.80
38860;DHT22;24609;48.316;16.174;2023-07-31T10:05:24;32.60;29.90
38860;DHT22;24609;48.316;16.174;2023-07-31T10:07:57;30.50;30.80
38860;DHT22;24609;48.316;16.174;2023-07-31T10:10:23;33.50;30.10
38860;DHT22;24609;48.316;16.174;2023-07-31T10:12:52;34.40;28.90
38860;DHT22;24609;48.316;16.174;2023-07-31T10:15:19;34.70;26.30
38860;DHT22;24609;48.316;16.174;2023-07-31T10:17:49;37.00;29.40
38860;DHT22;24609;48.316;16.174;2023-07-31T10:20:16;36.00;25.60
38860;DHT22;24609;48.316;16.174;2023-07-31T10:22:43;36.30;27.10
38860;DHT22;24609;48.316;16.174;2023-07-31T10:25:09;35.00;27.70
38860;DHT22;24609;48.316;16.174;2023-07-31T10:27:36;32.30;30.90
38860;DHT22;24609;48.316;16.174;2023-07-31T10:30:04;32.00;30.80
38860;DHT22;24609;48.316;16.174;2023-07-31T10:32:31;33.50;29.70
38860;DHT22;24609;48.316;16.174;2023-07-31T10:34:58;36.40;27.50
38860;DHT22;24609;48.316;16.174;2023-07-31T10:37:26;38.30;25.60
38860;DHT22;24609;48.316;16.174;2023-07-31T10:40:00;38.40;25.10
38860;DHT22;24609;48.316;16.174;2023-07-31T10:42:31;36.90;22.50
38860;DHT22;24609;48.316;16.174;2023-07-31T10:45:05;37.70;24.30
38860;DHT22;24609;48.316;16.174;2023-07-31T10:47:36;39.00;25.20
38860;DHT22;24609;48.316;16.174;2023-07-31T10:50:20;39.70;20.50
38860;DHT22;24609;48.316;16.174;2023-07-31T10:52:51;39.10;21.40
38860;DHT22;24609;48.316;16.174;2023-07-31T10:55:40;39.80;22.10
38860;DHT22;24609;48.316;16.174;2023-07-31T10:58:07;37.60;23.20
38860;DHT22;24609;48.316;16.174;2023-07-31T11:00:33;37.80;21.00
38860;DHT22;24609;48.316;16.174;2023-07-31T11:03:19;37.60;22.20
38860;DHT22;24609;48.316;16.174;2023-07-31T11:08:35;37.80;21.10
38860;DHT22;24609;48.316;16.174;2023-07-31T11:13:30;39.10;20.90
38860;DHT22;24609;48.316;16.174;2023-07-31T11:15:56;38.90;20.40
38860;DHT22;24609;48.316;16.174;2023-07-31T11:18:22;39.70;20.50
38860;DHT22;24609;48.316;16.174;2023-07-31T11:20:48;39.10;19.20
38860;DHT22;24609;48.316;16.174;2023-07-31T11:23:16;36.50;22.10
38860;DHT22;24609;48.316;16.174;2023-07-31T11:25:42;35.60;23.90
38860;DHT22;24609;48.316;16.174;2023-07-31T11:28:12;37.10;21.40
38860;DHT22;24609;48.316;16.174;2023-07-31T11:30:39;38.10;22.40
38860;DHT22;24609;48.316;16.174;2023-07-31T11:33:09;37.00;19.90
38860;DHT22;24609;48.316;16.174;2023-07-31T11:38:31;38.70;19.50
38860;DHT22;24609;48.316;16.174;2023-07-31T11:41:01;40.30;20.90
38860;DHT22;24609;48.316;16.174;2023-07-31T11:43:34;38.10;19.00
38860;DHT22;24609;48.316;16.174;2023-07-31T11:46:02;35.30;20.60
38860;DHT22;24609;48.316;16.174;2023-07-31T11:48:34;35.60;22.50
38860;DHT22;24609;48.316;16.174;2023-07-31T11:51:06;37.00;21.30
38860;DHT22;24609;48.316;16.174;2023-07-31T11:53:45;35.70;22.10
38860;DHT22;24609;48.316;16.174;2023-07-31T11:56:13;32.00;25.10
38860;DHT22;24609;48.316;16.174;2023-07-31T11:58:41;32.80;25.00
38860;DHT22;24609;48.316;16.174;2023-07-31T12:01:08;36.80;21.90
38860;DHT22;24609;48.316;16.174;2023-07-31T12:03:34;39.30;19.20
38860;DHT22;24609;48.316;16.174;2023-07-31T12:06:00;40.00;17.80
38860;DHT22;24609;48.316;16.174;2023-07-31T12:08:26;40.30;19.80
38860;DHT22;24609;48.316;16.174;2023-07-31T12:10:53;40.90;16.70
38860;DHT22;24609;48.316;16.174;2023-07-31T12:13:23;43.70;16.20
38860;DHT22;24609;48.316;16.174;2023-07-31T12:15:49;44.00;15.00
38860;DHT22;24609;48.316;16.174;2023-07-31T12:18:20;42.70;15.70
38860;DHT22;24609;48.316;16.174;2023-07-31T12:20:47;43.20;15.30
38860;DHT22;24609;48.316;16.174;2023-07-31T12:23:21;42.80;16.00
38860;DHT22;24609;48.316;16.174;2023-07-31T12:31:04;43.50;14.90
38860;DHT22;24609;48.316;16.174;2023-07-31T12:33:31;43.30;13.90
38860;DHT22;24609;48.316;16.174;2023-07-31T12:36:00;42.90;14.80
38860;DHT22;24609;48.316;16.174;2023-07-31T12:38:26;41.80;13.40
38860;DHT22;24609;48.316;16.174;2023-07-31T12:40:51;42.50;14.60
38860;DHT22;24609;48.316;16.174;2023-07-31T12:43:17;40.40;15.40
38860;DHT22;24609;48.316;16.174;2023-07-31T12:45:43;40.70;17.00
38860;DHT22;24609;48.316;16.174;2023-07-31T12:48:09;42.70;14.10
38860;DHT22;24609;48.316;16.174;2023-07-31T12:50:35;43.10;14.80
38860;DHT22;24609;48.316;16.174;2023-07-31T12:53:02;41.60;14.50
38860;DHT22;24609;48.316;16.174;2023-07-31T12:55:31;41.30;16.40
38860;DHT22;24609;48.316;16.174;2023-07-31T12:58:00;41.10;15.70
38860;DHT22;24609;48.316;16.174;2023-07-31T13:00:26;42.30;15.70
38860;DHT22;24609;48.316;16.174;2023-07-31T13:02:51;43.90;13.70
38860;DHT22;24609;48.316;16.174;2023-07-31T13:05:17;42.90;14.20
38860;DHT22;24609;48.316;16.174;2023-07-31T13:07:45;39.90;15.50
38860;DHT22;24609;48.316;16.174;2023-07-31T13:10:10;41.00;15.50
38860;DHT22;24609;48.316;16.174;2023-07-31T13:12:36;41.30;13.50
38860;DHT22;24609;48.316;16.174;2023-07-31T13:15:03;40.60;16.20
38860;DHT22;24609;48.316;16.174;2023-07-31T13:17:28;41.50;13.90
38860;DHT22;24609;48.316;16.174;2023-07-31T13:19:54;40.60;14.70
38860;DHT22;24609;48.316;16.174;2023-07-31T13:22:20;39.30;14.50
38860;DHT22;24609;48.316;16.174;2023-07-31T13:24:45;36.50;19.20
38860;DHT22;24609;48.316;16.174;2023-07-31T13:27:11;38.10;17.20
38860;DHT22;24609;48.316;16.174;2023-07-31T13:29:37;38.00;16.60
38860;DHT22;24609;48.316;16.174;2023-07-31T13:32:03;39.80;16.20
38860;DHT22;24609;48.316;16.174;2023-07-31T13:34:28;39.50;14.80
38860;DHT22;24609;48.316;16.174;2023-07-31T13:36:54;39.90;16.30
38860;DHT22;24609;48.316;16.174;2023-07-31T13:39:21;41.00;15.50
38860;DHT22;24609;48.316;16.174;2023-07-31T13:41:47;37.80;16.20
38860;DHT22;24609;48.316;16.174;2023-07-31T13:44:12;37.90;17.70
38860;DHT22;24609;48.316;16.174;2023-07-31T13:46:38;39.00;16.90
38860;DHT22;24609;48.316;16.174;2023-07-31T13:49:04;40.00;14.80
38860;DHT22;24609;48.316;16.174;2023-07-31T13:51:29;39.00;16.40
38860;DHT22;24609;48.316;16.174;2023-07-31T13:53:55;42.00;13.90
38860;DHT22;24609;48.316;16.174;2023-07-31T13:56:21;42.40;14.30
38860;DHT22;24609;48.316;16.174;2023-07-31T13:58:46;42.70;13.10
38860;DHT22;24609;48.316;16.174;2023-07-31T14:01:12;38.80;14.20
38860;DHT22;24609;48.316;16.174;2023-07-31T14:03:38;35.60;17.80
38860;DHT22;24609;48.316;16.174;2023-07-31T14:06:03;34.00;18.90
38860;DHT22;24609;48.316;16.174;2023-07-31T14:08:29;35.80;18.50
38860;DHT22;24609;48.316;16.174;2023-07-31T14:10:55;37.50;16.50
38860;DHT22;24609;48.316;16.174;2023-07-31T14:13:21;34.90;18.40
38860;DHT22;24609;48.316;16.174;2023-07-31T14:15:47;32.40;21.10
38860;DHT22;24609;48.316;16.174;2023-07-31T14:18:12;30.30;23.30
38860;DHT22;24609;48.316;16.174;2023-07-31T14:20:38;30.60;23.70
38860;DHT22;24609;48.316;16.174;2023-07-31T14:23:04;34.90;20.90
38860;DHT22;24609;48.316;16.174;2023-07-31T14:25:30;40.00;16.00
38860;DHT22;24609;48.316;16.174;2023-07-31T14:27:55;43.30;12.90
38860;DHT22;24609;48.316;16.174;2023-07-31T14:30:21;44.70;12.60
38860;DHT22;24609;48.316;16.174;2023-07-31T14:32:47;44.50;11.90
38860;DHT22;24609;48.316;16.174;2023-07-31T14:35:12;44.10;11.50
38860;DHT22;24609;48.316;16.174;2023-07-31T14:37:42;42.90;12.60
38860;DHT22;24609;48.316;16.174;2023-07-31T14:40:09;42.50;12.30
38860;DHT22;24609;48.316;16.174;2023-07-31T14:42:36;42.60;12.40
38860;DHT22;24609;48.316;16.174;2023-07-31T14:45:03;43.00;12.20
38860;DHT22;24609;48.316;16.174;2023-07-31T14:47:29;43.70;12.00
38860;DHT22;24609;48.316;16.174;2023-07-31T14:49:56;41.30;13.20
38860;DHT22;24609;48.316;16.174;2023-07-31T14:52:22;40.40;13.00
38860;DHT22;24609;48.316;16.174;2023-07-31T14:54:47;37.70;14.00
38860;DHT22;24609;48.316;16.174;2023-07-31T14:57:13;38.50;14.10
38860;DHT22;24609;48.316;16.174;2023-07-31T14:59:39;38.80;14.30
38860;DHT22;24609;48.316;16.174;2023-07-31T15:02:05;39.40;14.10
38860;DHT22;24609;48.316;16.174;2023-07-31T15:04:31;38.80;13.80
38860;DHT22;24609;48.316;16.174;2023-07-31T15:06:56;40.40;11.90
38860;DHT22;24609;48.316;16.174;2023-07-31T15:09:22;41.50;12.90
38860;DHT22;24609;48.316;16.174;2023-07-31T15:11:48;42.20;12.20
38860;DHT22;24609;48.316;16.174;2023-07-31T15:14:13;42.00;12.40
38860;DHT22;24609;48.316;16.174;2023-07-31T15:16:39;41.90;11.80
38860;DHT22;24609;48.316;16.174;2023-07-31T15:19:05;40.50;12.60
38860;DHT22;24609;48.316;16.174;2023-07-31T15:21:30;40.00;13.70
38860;DHT22;24609;48.316;16.174;2023-07-31T15:23:56;40.10;14.00
38860;DHT22;24609;48.316;16.174;2023-07-31T15:26:22;39.90;13.70
38860;DHT22;24609;48.316;16.174;2023-07-31T15:28:50;39.60;13.20